M I D A S
Marine Information and Data Acquisition System
Tripno 1666 of the Zeeleeuw from 2009-03-27 07:38:46 to 2009-03-27 11:29:19
Back to CruiseResearch ActivitiesStationsMapUnderway DataData graphs

EquipmentUnitsComment
TimeDGPSUTC
LatitudeDGPSDM.mWGS84
LongitudeDGPSDM.mWGS84
HeadingGyrodeg 
SOGDGPSknotsSpeed over ground
COGDGPSdegCourse over ground
DepthEcho soundermeters200 kHz
Missing or incorrect values are displayed as -999
Navigation data collected by the RV Zeeleeuw from 2009-03-27 07:39:53 to 2009-03-27 11:41:38
                                                                                    Next 1000 lines
Time Latitude Longitude Heading SOG COG Depth
2009-03-27 07:40:02 51°13.663 2°55.957 112.6 1.1 297 4.7
2009-03-27 07:40:08 51°13.663 2°55.953 112.6 1.5 293 4.7
2009-03-27 07:40:13 51°13.664 2°55.949 112.6 2 294 4.8
2009-03-27 07:40:18 51°13.665 2°55.944 112.6 2.3 294 -999
2009-03-27 07:40:24 51°13.667 2°55.938 112.6 2.6 295 -999
2009-03-27 07:40:30 51°13.669 2°55.932 112.4 2.8 294 -999
2009-03-27 07:40:35 51°13.671 2°55.926 112.4 3.1 296 -999
2009-03-27 07:40:41 51°13.673 2°55.918 112.2 3.3 294 -999
2009-03-27 07:40:46 51°13.675 2°55.911 111.9 3.4 294 -999
2009-03-27 07:40:51 51°13.677 2°55.904 111.4 3.5 293 -999
2009-03-27 07:40:57 51°13.679 2°55.896 110.4 3.5 292 -999
2009-03-27 07:41:02 51°13.681 2°55.888 109 3.6 290 -999
2009-03-27 07:41:06 51°13.682 2°55.882 107.8 3.6 289 -999
2009-03-27 07:41:12 51°13.684 2°55.873 106.2 3.6 287 -999
2009-03-27 07:41:17 51°13.685 2°55.865 104.6 3.6 286 -999
2009-03-27 07:41:22 51°13.687 2°55.858 103.2 3.6 285 -999
2009-03-27 07:41:27 51°13.688 2°55.85 101.6 3.5 283 -999
2009-03-27 07:41:32 51°13.689 2°55.843 100.1 3.4 283 -999
2009-03-27 07:41:37 51°13.69 2°55.836 98.7 3.3 281 -999
2009-03-27 07:41:42 51°13.691 2°55.828 97.3 3.3 280 -999
2009-03-27 07:41:47 51°13.691 2°55.821 95.9 3.2 279 -999
2009-03-27 07:41:52 51°13.692 2°55.814 94.3 3.1 278 -999
2009-03-27 07:41:57 51°13.692 2°55.808 92.6 3 277 -999
2009-03-27 07:42:02 51°13.693 2°55.801 90.8 2.9 274 -999
2009-03-27 07:42:06 51°13.694 2°55.797 88.8 2.7 274 -999
2009-03-27 07:42:12 51°13.694 2°55.789 87.2 2.6 272 -999
2009-03-27 07:42:17 51°13.695 2°55.784 85.7 2.5 272 -999
2009-03-27 07:42:22 51°13.695 2°55.779 84.6 2.2 270 9.5
2009-03-27 07:42:26 51°13.695 2°55.775 83 2 269 9.9
2009-03-27 07:42:31 51°13.694 2°55.771 81.6 1.8 269 10.1
2009-03-27 07:42:36 51°13.694 2°55.768 79.5 1.5 269 10.3
2009-03-27 07:42:41 51°13.694 2°55.766 77.4 1.1 276 10.4
2009-03-27 07:42:45 51°13.695 2°55.765 75.8 0.4 300 10.7
2009-03-27 07:42:50 51°13.695 2°55.765 72.7 0.5 8 10.6
2009-03-27 07:42:55 51°13.696 2°55.766 67.8 0.8 36 10.4
2009-03-27 07:43:00 51°13.697 2°55.767 61.8 0.9 30 10.4
2009-03-27 07:43:05 51°13.698 2°55.768 55.6 1 34 10.4
2009-03-27 07:43:10 51°13.699 2°55.769 50.2 1.1 30 -999
2009-03-27 07:43:15 51°13.7 2°55.771 45.3 1.1 28 4.6
2009-03-27 07:43:20 51°13.701 2°55.772 41 1 22 10.5
2009-03-27 07:43:26 51°13.703 2°55.772 37.8 0.7 17 10.4
2009-03-27 07:43:31 51°13.703 2°55.772 35.2 0.4 356 10.4
2009-03-27 07:43:35 51°13.704 2°55.772 32.4 0.2 319 10.4
2009-03-27 07:43:41 51°13.704 2°55.771 29.8 0.3 260 -999
2009-03-27 07:43:46 51°13.704 2°55.77 27.5 0.5 226 10.4
2009-03-27 07:43:51 51°13.703 2°55.769 25.5 0.7 220 10.4
2009-03-27 07:43:55 51°13.702 2°55.768 23.3 0.8 211 10.4
2009-03-27 07:44:00 51°13.701 2°55.767 21.5 0.9 215 10.4
2009-03-27 07:44:05 51°13.7 2°55.766 19.7 0.8 213 10.4
2009-03-27 07:44:11 51°13.699 2°55.765 18.2 0.6 220 -999
2009-03-27 07:44:16 51°13.699 2°55.764 17.1 0.3 244 -999
2009-03-27 07:44:22 51°13.699 2°55.764 15.2 0.3 287 5.6
2009-03-27 07:44:26 51°13.699 2°55.763 12.6 0.4 321 5.1
2009-03-27 07:44:31 51°13.7 2°55.763 10.2 0.6 336 5.1
2009-03-27 07:44:36 51°13.701 2°55.762 6.8 0.7 342 4.7
2009-03-27 07:44:41 51°13.702 2°55.762 3.1 0.9 342 4.9
2009-03-27 07:44:46 51°13.704 2°55.761 0.1 1.2 342 5.1
2009-03-27 07:44:50 51°13.705 2°55.76 355.1 1.4 340 5.3
2009-03-27 07:44:55 51°13.707 2°55.759 350.2 1.7 336 -999
2009-03-27 07:45:01 51°13.71 2°55.757 343.8 2 333 -999
2009-03-27 07:45:06 51°13.713 2°55.754 338.3 2.3 330 10.5
2009-03-27 07:45:11 51°13.715 2°55.751 333.2 2.6 327 -999
2009-03-27 07:45:16 51°13.719 2°55.748 330.3 2.7 326 10.4
2009-03-27 07:45:21 51°13.722 2°55.744 327.6 3 325 10.3
2009-03-27 07:45:26 51°13.726 2°55.74 326.1 3.2 325 10.2
2009-03-27 07:45:31 51°13.729 2°55.736 325.6 3.4 326 10.2
2009-03-27 07:45:35 51°13.733 2°55.732 325.8 3.6 326 10.2
2009-03-27 07:45:40 51°13.737 2°55.727 326.3 4.1 326 10.2
2009-03-27 07:45:45 51°13.743 2°55.722 326.7 4.8 326 10.3
2009-03-27 07:45:50 51°13.749 2°55.715 326.6 5.5 325 10.4
2009-03-27 07:45:54 51°13.754 2°55.709 326.5 5.8 327 9.6
2009-03-27 07:45:59 51°13.761 2°55.702 327.1 6.3 325 9.2
2009-03-27 07:46:04 51°13.769 2°55.694 328 6.7 328 8.8
2009-03-27 07:46:09 51°13.777 2°55.686 328.5 7 327 9
2009-03-27 07:46:14 51°13.785 2°55.677 329 7.2 329 8.9
2009-03-27 07:46:19 51°13.794 2°55.669 330.4 7.5 330 9.1
2009-03-27 07:46:23 51°13.801 2°55.662 331 7.7 329 9.1
2009-03-27 07:46:29 51°13.813 2°55.652 331.3 7.8 331 9.2
2009-03-27 07:46:33 51°13.821 2°55.645 332 8 332 9.1
2009-03-27 07:46:38 51°13.83 2°55.637 333.3 8 333 9
2009-03-27 07:46:43 51°13.84 2°55.629 334.2 8.1 333 9.1
2009-03-27 07:46:48 51°13.851 2°55.622 335.1 8.2 334 9
2009-03-27 07:46:53 51°13.861 2°55.613 335.2 8.3 333 9.4
2009-03-27 07:46:58 51°13.872 2°55.605 335.4 8.5 334 9.4
2009-03-27 07:47:02 51°13.881 2°55.599 335.9 8.7 334 9.5
2009-03-27 07:47:08 51°13.894 2°55.589 335.6 8.8 334 9.5
2009-03-27 07:47:13 51°13.905 2°55.58 336 8.9 336 9.6
2009-03-27 07:47:18 51°13.916 2°55.572 337.3 9 335 9.6
2009-03-27 07:47:24 51°13.93 2°55.561 336.3 9 334 -999
2009-03-27 07:47:30 51°13.943 2°55.551 335.5 9.1 334 -999
2009-03-27 07:47:35 51°13.955 2°55.543 336.2 9.2 336 -999
2009-03-27 07:47:41 51°13.969 2°55.533 336.9 9.2 336 9.7
2009-03-27 07:47:45 51°13.978 2°55.526 336.9 9.2 336 9.7
2009-03-27 07:47:50 51°13.99 2°55.518 337.5 9.3 337 9.7
2009-03-27 07:47:55 51°14.002 2°55.51 337.6 9.3 336 9.7
2009-03-27 07:48:00 51°14.014 2°55.501 337 9.3 336 9.5
2009-03-27 07:48:05 51°14.025 2°55.493 336.8 9.3 336 9.5
2009-03-27 07:48:10 51°14.037 2°55.485 337.5 9.3 337 9.5
2009-03-27 07:48:14 51°14.047 2°55.478 338.3 9.3 336 9.6
2009-03-27 07:48:19 51°14.059 2°55.469 337.6 9.4 334 9.6
2009-03-27 07:48:24 51°14.071 2°55.461 337.2 9.4 335 9.6
2009-03-27 07:48:29 51°14.082 2°55.452 336.8 9.4 334 9.6
2009-03-27 07:48:34 51°14.094 2°55.443 336.1 9.4 335 -999
2009-03-27 07:48:39 51°14.106 2°55.434 336.2 9.3 334 9.6
2009-03-27 07:48:44 51°14.117 2°55.425 336.4 9.3 334 9.7
2009-03-27 07:48:49 51°14.129 2°55.416 335.4 9.3 333 9.8
2009-03-27 07:48:54 51°14.141 2°55.407 334.9 9.3 334 9.7
2009-03-27 07:48:59 51°14.152 2°55.397 335.3 9.2 333 9.7
2009-03-27 07:49:03 51°14.161 2°55.389 334.4 9.2 330 9.9
2009-03-27 07:49:09 51°14.174 2°55.377 332 9.1 330 9.9
2009-03-27 07:49:13 51°14.183 2°55.368 330.7 9.1 327 9.7
2009-03-27 07:49:18 51°14.193 2°55.357 329.1 9.1 326 9.8
2009-03-27 07:49:23 51°14.203 2°55.345 326.8 9.2 324 9.9
2009-03-27 07:49:28 51°14.213 2°55.332 324.3 9.2 322 9.9
2009-03-27 07:49:33 51°14.223 2°55.32 322.5 9.2 320 9.9
2009-03-27 07:49:38 51°14.233 2°55.306 320.9 9.2 319 9.9
2009-03-27 07:49:42 51°14.241 2°55.295 320.2 9.2 319 9.8
2009-03-27 07:49:48 51°14.252 2°55.279 319.1 9.2 317 9.8
2009-03-27 07:49:53 51°14.261 2°55.265 318.4 9.3 317 9.8
2009-03-27 07:49:58 51°14.271 2°55.25 317.3 9.3 315 9.8
2009-03-27 07:50:03 51°14.28 2°55.236 316.6 9.3 315 9.8
2009-03-27 07:50:08 51°14.289 2°55.221 317 9.4 315 10.1
2009-03-27 07:50:13 51°14.298 2°55.206 316.9 9.4 315 10
2009-03-27 07:50:18 51°14.307 2°55.191 315.6 9.4 313 9.8
2009-03-27 07:50:23 51°14.316 2°55.176 314.1 9.4 313 9.9
2009-03-27 07:50:28 51°14.325 2°55.16 313.3 9.5 312 9.9
2009-03-27 07:50:33 51°14.334 2°55.145 313.6 9.5 314 9.8
2009-03-27 07:50:38 51°14.343 2°55.129 313.7 9.5 313 9.8
2009-03-27 07:50:43 51°14.352 2°55.114 313.6 9.5 314 9.9
2009-03-27 07:50:48 51°14.361 2°55.099 314 9.5 313 10.1
2009-03-27 07:50:53 51°14.37 2°55.083 313.3 9.5 312 10
2009-03-27 07:50:58 51°14.379 2°55.068 312.7 9.5 312 9.6
2009-03-27 07:51:03 51°14.388 2°55.053 312.6 9.4 312 9.6
2009-03-27 07:51:07 51°14.394 2°55.04 311.7 9.2 310 9.8
2009-03-27 07:51:13 51°14.404 2°55.021 309.1 9.1 307 9.6
2009-03-27 07:51:18 51°14.411 2°55.005 305.8 8.9 303 9.6
2009-03-27 07:51:23 51°14.416 2°54.987 301.7 8.8 298 9.3
2009-03-27 07:51:28 51°14.421 2°54.97 297.3 8.8 294 9.3
2009-03-27 07:51:33 51°14.425 2°54.951 293.4 8.7 287 9.5
2009-03-27 07:51:38 51°14.428 2°54.932 289 8.7 282 9.6
2009-03-27 07:51:43 51°14.43 2°54.913 283.8 8.8 279 9.7
2009-03-27 07:51:48 51°14.43 2°54.894 279 8.9 273 9.8
2009-03-27 07:51:53 51°14.43 2°54.874 274.9 9 269 9.8
2009-03-27 07:51:58 51°14.43 2°54.854 271.3 9.2 265 9.7
2009-03-27 07:52:03 51°14.428 2°54.833 267.2 9.3 261 9.7
2009-03-27 07:52:07 51°14.426 2°54.817 262.9 9.4 256 9.7
2009-03-27 07:52:13 51°14.421 2°54.793 257.9 9.4 253 9.6
2009-03-27 07:52:18 51°14.417 2°54.773 253.9 9.5 251 9.5
2009-03-27 07:52:23 51°14.413 2°54.753 254 9.6 254 9.4
2009-03-27 07:52:28 51°14.408 2°54.732 254.9 9.9 250 9.5
2009-03-27 07:52:33 51°14.404 2°54.711 254.5 10.1 251 9.5
2009-03-27 07:52:38 51°14.4 2°54.69 254.3 10.1 252 9.4
2009-03-27 07:52:43 51°14.395 2°54.668 254.9 10.2 253 9.4
2009-03-27 07:52:48 51°14.391 2°54.647 254.9 10.3 251 9.6
2009-03-27 07:52:53 51°14.386 2°54.625 254.4 10.4 252 9.5
2009-03-27 07:52:58 51°14.382 2°54.603 255 10.5 252 9.5
2009-03-27 07:53:03 51°14.377 2°54.58 254.9 10.6 252 9.1
2009-03-27 07:53:08 51°14.373 2°54.558 254.4 10.8 252 8.9
2009-03-27 07:53:13 51°14.368 2°54.535 253.5 11 251 8.6
2009-03-27 07:53:18 51°14.362 2°54.512 252.5 11.3 250 8.5
2009-03-27 07:53:23 51°14.357 2°54.488 252.4 11.5 250 8.4
2009-03-27 07:53:27 51°14.352 2°54.469 252.2 11.5 249 8.3
2009-03-27 07:53:33 51°14.346 2°54.44 251.7 11.8 248 8.4
2009-03-27 07:53:38 51°14.34 2°54.415 251.1 11.7 248 8.3
2009-03-27 07:53:43 51°14.334 2°54.391 250.5 11.8 248 8.1
2009-03-27 07:53:48 51°14.327 2°54.368 250 12 246 8.2
2009-03-27 07:53:53 51°14.32 2°54.343 250.5 11.7 247 8.1
2009-03-27 07:53:58 51°14.314 2°54.32 250.4 11.8 246 8
2009-03-27 07:54:03 51°14.307 2°54.296 248.8 12 245 8.1
2009-03-27 07:54:08 51°14.3 2°54.272 248.1 11.8 245 8
2009-03-27 07:54:13 51°14.293 2°54.248 248 12 244 8.2
2009-03-27 07:54:18 51°14.285 2°54.224 247.2 11.9 245 8.1
2009-03-27 07:54:22 51°14.28 2°54.205 247.1 11.9 244 8.2
2009-03-27 07:54:28 51°14.271 2°54.177 246.8 12 243 8.2
2009-03-27 07:54:33 51°14.264 2°54.153 246.1 12 244 8.1
2009-03-27 07:54:38 51°14.257 2°54.129 246.1 12.1 243 8.2
2009-03-27 07:54:43 51°14.249 2°54.105 245.8 12.1 244 8.2
2009-03-27 07:54:47 51°14.243 2°54.087 245.4 11.8 241 8.1
2009-03-27 07:54:53 51°14.234 2°54.058 244.3 12 243 7.9
2009-03-27 07:54:58 51°14.226 2°54.035 244.6 12.1 242 7.9
2009-03-27 07:55:03 51°14.218 2°54.011 245.2 12 243 7.8
2009-03-27 07:55:08 51°14.211 2°53.988 244.8 12 242 7.9
2009-03-27 07:55:13 51°14.203 2°53.964 245.1 12 242 8
2009-03-27 07:55:18 51°14.195 2°53.94 244.9 11.9 243 8
2009-03-27 07:55:23 51°14.187 2°53.917 244.6 12 242 7.7
2009-03-27 07:55:28 51°14.18 2°53.894 244.7 11.8 244 7.6
2009-03-27 07:55:33 51°14.172 2°53.87 244.8 11.9 242 7.6
2009-03-27 07:55:38 51°14.165 2°53.847 243.8 12 244 7.8
2009-03-27 07:55:43 51°14.158 2°53.822 245.7 12 245 8
2009-03-27 07:55:48 51°14.15 2°53.799 245 12 241 8.4
2009-03-27 07:55:53 51°14.142 2°53.776 245.1 11.9 243 8.4
2009-03-27 07:55:58 51°14.135 2°53.753 246.3 12 242 8.4
2009-03-27 07:56:03 51°14.127 2°53.729 244.6 12.1 241 8.4
2009-03-27 07:56:08 51°14.119 2°53.706 244.8 11.9 243 8.3
2009-03-27 07:56:13 51°14.112 2°53.682 245.3 12 243 8.3
2009-03-27 07:56:18 51°14.105 2°53.658 245.9 12 244 8.3
2009-03-27 07:56:23 51°14.097 2°53.634 246.1 12 244 8.2
2009-03-27 07:56:28 51°14.09 2°53.611 246.1 11.8 244 8.2
2009-03-27 07:56:33 51°14.082 2°53.587 245.5 12.1 243 8.3
2009-03-27 07:56:38 51°14.074 2°53.564 245.8 12.1 244 8.2
2009-03-27 07:56:43 51°14.067 2°53.54 247 12.1 244 8.3
2009-03-27 07:56:47 51°14.061 2°53.521 245.5 12.2 241 8.4
2009-03-27 07:56:53 51°14.052 2°53.492 245.6 12.2 245 8.4
2009-03-27 07:56:58 51°14.045 2°53.468 247.4 12.2 244 8.5
2009-03-27 07:57:03 51°14.037 2°53.444 245.7 12.1 243 8.3
2009-03-27 07:57:08 51°14.03 2°53.42 245.8 12.2 244 8.4
2009-03-27 07:57:13 51°14.022 2°53.396 245.5 12.2 243 8.5
2009-03-27 07:57:18 51°14.015 2°53.372 245.4 12.1 243 8.4
2009-03-27 07:57:23 51°14.007 2°53.349 244.8 12.1 243 8.6
2009-03-27 07:57:28 51°13.999 2°53.325 245.4 12.1 243 8.6
2009-03-27 07:57:33 51°13.992 2°53.301 245.3 12.1 243 8.7
2009-03-27 07:57:38 51°13.984 2°53.277 245.5 12.2 243 8.7
2009-03-27 07:57:43 51°13.976 2°53.253 245 12.2 244 8.8
2009-03-27 07:57:48 51°13.968 2°53.229 245.1 12.2 242 8.8
2009-03-27 07:57:53 51°13.961 2°53.205 244.7 12.3 243 8.8
2009-03-27 07:57:58 51°13.953 2°53.181 245.2 12.3 242 8.7
2009-03-27 07:58:03 51°13.945 2°53.156 245.1 12.3 244 8.8
2009-03-27 07:58:07 51°13.939 2°53.137 244.8 12.3 243 8.8
2009-03-27 07:58:13 51°13.929 2°53.108 244.7 12.3 242 8.9
2009-03-27 07:58:18 51°13.922 2°53.084 244.9 12.4 244 8.9
2009-03-27 07:58:23 51°13.914 2°53.06 245.7 12.3 243 9
2009-03-27 07:58:28 51°13.907 2°53.035 246.6 12.3 244 9
2009-03-27 07:58:33 51°13.899 2°53.01 246.8 12.4 244 9
2009-03-27 07:58:38 51°13.892 2°52.986 247.1 12.2 244 9.1
2009-03-27 07:58:43 51°13.884 2°52.962 246.3 12.3 242 9.1
2009-03-27 07:58:48 51°13.876 2°52.938 246 12.2 243 9.1
2009-03-27 07:58:53 51°13.869 2°52.914 245.9 12.1 243 9
2009-03-27 07:58:58 51°13.861 2°52.89 246 12.2 243 9.1
2009-03-27 07:59:02 51°13.855 2°52.87 246.4 12.2 243 9.1
2009-03-27 07:59:08 51°13.845 2°52.842 246 12.3 242 9.1
2009-03-27 07:59:13 51°13.838 2°52.818 245.8 12.1 243 9.2
2009-03-27 07:59:18 51°13.83 2°52.794 245.2 12.2 243 9.2
2009-03-27 07:59:23 51°13.822 2°52.77 245.9 12.2 243 9.2
2009-03-27 07:59:27 51°13.816 2°52.75 245.4 12.3 243 9.2
2009-03-27 07:59:33 51°13.806 2°52.722 245.8 12.2 242 9.5
2009-03-27 07:59:38 51°13.798 2°52.698 245.4 12 242 9.2
2009-03-27 07:59:43 51°13.791 2°52.675 245 12.1 241 9.2
2009-03-27 07:59:48 51°13.783 2°52.651 245.8 12 243 9
2009-03-27 07:59:53 51°13.775 2°52.627 245.5 12.1 242 9.1
2009-03-27 07:59:58 51°13.768 2°52.603 246 12.1 242 9.1
2009-03-27 08:00:03 51°13.76 2°52.58 245.4 12.1 242 9.2
2009-03-27 08:00:08 51°13.752 2°52.556 245.4 12.1 244 9.2
2009-03-27 08:00:13 51°13.744 2°52.532 245.9 12.2 242 9.2
2009-03-27 08:00:18 51°13.737 2°52.508 246.1 12.3 243 9.2
2009-03-27 08:00:23 51°13.729 2°52.484 246.9 12.2 244 9.3
2009-03-27 08:00:28 51°13.722 2°52.459 246.8 12.2 243 9.2
2009-03-27 08:00:33 51°13.714 2°52.435 246.4 12.3 244 9.4
2009-03-27 08:00:38 51°13.706 2°52.411 246.3 12.3 243 9.5
2009-03-27 08:00:43 51°13.699 2°52.387 246.4 12.4 245 9.5
2009-03-27 08:00:48 51°13.693 2°52.362 247.3 12.3 245 9.5
2009-03-27 08:00:53 51°13.685 2°52.338 247.2 12.3 244 9.7
2009-03-27 08:00:58 51°13.677 2°52.314 246.8 12.1 243 9.6
2009-03-27 08:01:03 51°13.67 2°52.29 245.5 12.2 244 9.6
2009-03-27 08:01:08 51°13.662 2°52.266 246.3 12.2 244 9.4
2009-03-27 08:01:13 51°13.655 2°52.242 246.5 12.2 244 9.4
2009-03-27 08:01:18 51°13.647 2°52.218 246.4 12.3 244 9.4
2009-03-27 08:01:23 51°13.64 2°52.193 247.4 12.3 245 9.5
2009-03-27 08:01:27 51°13.634 2°52.174 247.6 12.2 245 9.5
2009-03-27 08:01:33 51°13.625 2°52.145 247.8 12.2 244 9.5
2009-03-27 08:01:38 51°13.618 2°52.12 247.4 12.2 244 9.5
2009-03-27 08:01:43 51°13.611 2°52.095 247.8 12.3 245 9.6
2009-03-27 08:01:48 51°13.603 2°52.07 247.6 12.3 244 9.6
2009-03-27 08:01:53 51°13.596 2°52.046 247.2 12.4 245 9.6
2009-03-27 08:01:58 51°13.589 2°52.021 247 12.4 245 9.7
2009-03-27 08:02:03 51°13.581 2°51.996 247.5 12.5 245 9.8
2009-03-27 08:02:08 51°13.574 2°51.972 247.4 12.4 244 9.7
2009-03-27 08:02:13 51°13.566 2°51.948 246.9 12.3 243 9.8
2009-03-27 08:02:18 51°13.559 2°51.924 247 12.2 243 9.7
2009-03-27 08:02:23 51°13.551 2°51.9 246.8 12.1 244 9.7
2009-03-27 08:02:28 51°13.544 2°51.876 246.9 12.2 244 9.8
2009-03-27 08:02:33 51°13.537 2°51.852 246.9 11.9 244 9.7
2009-03-27 08:02:38 51°13.53 2°51.828 247.1 11.8 243 9.7
2009-03-27 08:02:43 51°13.523 2°51.805 247 11.7 245 9.8
2009-03-27 08:02:47 51°13.517 2°51.787 247.7 11.3 241 9.7
2009-03-27 08:02:53 51°13.508 2°51.761 246.1 11 239 9.7
2009-03-27 08:02:58 51°13.499 2°51.742 240.4 10.9 232 9.7
2009-03-27 08:03:03 51°13.488 2°51.724 233.5 10.9 228 9.7
2009-03-27 08:03:08 51°13.478 2°51.708 228 10.7 225 9.7
2009-03-27 08:03:13 51°13.467 2°51.691 226 10.6 225 9.7
2009-03-27 08:03:18 51°13.456 2°51.675 223.8 10.7 220 9.7
2009-03-27 08:03:23 51°13.445 2°51.66 221.8 10.7 220 9.6
2009-03-27 08:03:28 51°13.433 2°51.646 219.3 10.7 217 9.5
2009-03-27 08:03:33 51°13.421 2°51.633 218.2 10.1 214 9.6
2009-03-27 08:03:38 51°13.41 2°51.62 214.7 9.4 216 9.6
2009-03-27 08:03:42 51°13.402 2°51.612 213.5 8.9 214 9.7
2009-03-27 08:03:48 51°13.391 2°51.599 214.2 8.3 217 9.8
2009-03-27 08:03:53 51°13.383 2°51.587 219.3 7.5 221 9.9
2009-03-27 08:03:58 51°13.376 2°51.576 224 7 227 10
2009-03-27 08:04:03 51°13.37 2°51.565 229.7 6.7 230 10
2009-03-27 08:04:07 51°13.365 2°51.557 234.8 6.1 233 9.8
2009-03-27 08:04:13 51°13.359 2°51.544 239.1 5.7 238 9.8
2009-03-27 08:04:18 51°13.355 2°51.533 244.3 5.3 241 9.7
2009-03-27 08:04:23 51°13.352 2°51.523 248.9 5.2 243 9.6
2009-03-27 08:04:28 51°13.349 2°51.514 253.1 4.7 247 9.6
2009-03-27 08:04:33 51°13.347 2°51.504 257.1 4.5 250 9.6
2009-03-27 08:04:38 51°13.346 2°51.496 263.1 4.3 253 9.7
2009-03-27 08:04:43 51°13.345 2°51.487 268.6 3.9 258 9.9
2009-03-27 08:04:48 51°13.344 2°51.479 272.1 3.8 261 9.9
2009-03-27 08:04:53 51°13.343 2°51.471 276.6 3.5 263 9.9
2009-03-27 08:04:58 51°13.343 2°51.464 282.4 3.3 267 10
2009-03-27 08:05:02 51°13.343 2°51.458 287 2.9 269 9.9
2009-03-27 08:05:08 51°13.343 2°51.451 292 2.6 273 10
2009-03-27 08:05:13 51°13.344 2°51.446 296.1 2.2 275 9.9
2009-03-27 08:05:18 51°13.344 2°51.442 300.6 1.9 269 9.8
2009-03-27 08:05:23 51°13.344 2°51.438 305.7 1.6 273 9.8
2009-03-27 08:05:28 51°13.345 2°51.435 308.7 1.3 280 9.8
2009-03-27 08:05:33 51°13.345 2°51.432 312.8 1.2 270 9.8
2009-03-27 08:05:38 51°13.345 2°51.43 317.4 0.8 300 9.9
2009-03-27 08:05:43 51°13.345 2°51.429 321.5 0.8 268 9.8
2009-03-27 08:05:48 51°13.346 2°51.428 326 0.5 278 9.8
2009-03-27 08:05:53 51°13.346 2°51.426 329.8 0.6 264 9.8
2009-03-27 08:05:58 51°13.346 2°51.425 333.1 0.4 281 10
2009-03-27 08:06:03 51°13.345 2°51.425 335 0.4 250 10.1
2009-03-27 08:06:08 51°13.345 2°51.424 337.1 0.3 232 10
2009-03-27 08:06:13 51°13.345 2°51.423 339 0.4 212 9.8
2009-03-27 08:06:18 51°13.345 2°51.423 342.2 0.6 215 9.8
2009-03-27 08:06:23 51°13.344 2°51.423 344.7 0.4 222 9.7
2009-03-27 08:06:27 51°13.344 2°51.423 346.5 0.4 197 9.6
2009-03-27 08:06:33 51°13.343 2°51.422 347.8 0.6 223 9.6
2009-03-27 08:06:38 51°13.343 2°51.422 348.9 0.5 218 9.7
2009-03-27 08:06:43 51°13.342 2°51.421 350.1 0.3 205 9.9
2009-03-27 08:06:48 51°13.342 2°51.42 350.6 0.6 198 9.9
2009-03-27 08:06:53 51°13.341 2°51.42 350.9 0.5 195 10.1
2009-03-27 08:06:58 51°13.34 2°51.42 352.5 0.5 201 10.1
2009-03-27 08:07:03 51°13.339 2°51.419 353.6 0.5 191 10.2
2009-03-27 08:07:08 51°13.339 2°51.419 355 0.6 193 10.1
2009-03-27 08:07:13 51°13.338 2°51.419 356 0.5 177 10.1
2009-03-27 08:07:18 51°13.337 2°51.419 357.9 0.6 180 10
2009-03-27 08:07:23 51°13.336 2°51.419 358.6 0.6 186 9.9
2009-03-27 08:07:28 51°13.335 2°51.419 359.6 0.7 188 9.9
2009-03-27 08:07:33 51°13.334 2°51.419 0.8 0.7 184 9.9
2009-03-27 08:07:38 51°13.333 2°51.419 2.3 0.7 178 9.9
2009-03-27 08:07:43 51°13.332 2°51.418 4.1 0.7 188 10
2009-03-27 08:07:47 51°13.332 2°51.418 4.4 0.7 192 10
2009-03-27 08:07:53 51°13.331 2°51.417 5.2 0.7 188 10
2009-03-27 08:07:58 51°13.33 2°51.417 5.3 0.7 194 9.9
2009-03-27 08:08:03 51°13.329 2°51.417 5.7 0.8 175 9.9
2009-03-27 08:08:08 51°13.328 2°51.417 5.5 0.7 158 9.9
2009-03-27 08:08:13 51°13.327 2°51.417 5.3 0.8 189 9.7
2009-03-27 08:08:18 51°13.326 2°51.416 5.7 0.9 204 9.5
2009-03-27 08:08:23 51°13.325 2°51.417 7.1 0.8 175 9.2
2009-03-27 08:08:28 51°13.323 2°51.417 8.1 0.7 186 9.1
2009-03-27 08:08:33 51°13.322 2°51.418 7.6 0.9 166 9.2
2009-03-27 08:08:38 51°13.321 2°51.417 6.7 0.8 181 9.4
2009-03-27 08:08:42 51°13.32 2°51.417 7.1 0.8 191 9.7
2009-03-27 08:08:48 51°13.319 2°51.417 7.6 0.7 178 10
2009-03-27 08:08:53 51°13.318 2°51.417 7.9 0.8 176 10
2009-03-27 08:08:58 51°13.317 2°51.417 7.7 0.8 195 10
2009-03-27 08:09:03 51°13.316 2°51.417 8.3 0.8 180 10
2009-03-27 08:09:07 51°13.315 2°51.417 8.8 0.8 189 9.9
2009-03-27 08:09:13 51°13.313 2°51.417 8.7 0.9 190 10
2009-03-27 08:09:18 51°13.312 2°51.417 8.8 0.9 189 9.9
2009-03-27 08:09:23 51°13.311 2°51.417 9 0.9 179 9.9
2009-03-27 08:09:28 51°13.31 2°51.417 9.3 0.9 198 9.9
2009-03-27 08:09:33 51°13.308 2°51.417 9.5 0.9 204 9.9
2009-03-27 08:09:38 51°13.307 2°51.418 9.5 0.9 181 9.9
2009-03-27 08:09:43 51°13.306 2°51.417 9.5 0.9 173 9.7
2009-03-27 08:09:48 51°13.304 2°51.416 9.4 0.9 196 9.7
2009-03-27 08:09:53 51°13.303 2°51.417 9.7 0.9 174 9.7
2009-03-27 08:09:58 51°13.302 2°51.417 10.3 0.9 181 9.8
2009-03-27 08:10:02 51°13.301 2°51.416 10.7 0.8 170 9.9
2009-03-27 08:10:08 51°13.3 2°51.416 10.2 0.7 184 9.9
2009-03-27 08:10:13 51°13.299 2°51.416 10.3 0.7 171 9.8
2009-03-27 08:10:18 51°13.298 2°51.416 11.1 0.5 184 9.9
2009-03-27 08:10:23 51°13.297 2°51.416 11.3 0.4 157 9.9
2009-03-27 08:10:28 51°13.297 2°51.416 11.4 0.1 138 9.9
2009-03-27 08:10:33 51°13.297 2°51.417 11.1 0.1 34 9.9
2009-03-27 08:10:38 51°13.298 2°51.417 11 0.2 343 10
2009-03-27 08:10:43 51°13.298 2°51.417 10.4 0.4 15 9.9
2009-03-27 08:10:48 51°13.299 2°51.417 9.4 0.6 354 9.9
2009-03-27 08:10:53 51°13.3 2°51.416 7.5 0.8 347 9.9
2009-03-27 08:10:58 51°13.301 2°51.416 6 0.8 348 9.7
2009-03-27 08:11:03 51°13.302 2°51.416 4.9 0.8 350 9.7
2009-03-27 08:11:08 51°13.303 2°51.415 3.7 0.8 348 9.7
2009-03-27 08:11:13 51°13.305 2°51.414 2.3 1 340 9.7
2009-03-27 08:11:18 51°13.306 2°51.414 1.5 1 339 9.6
2009-03-27 08:11:23 51°13.307 2°51.413 0.8 1.1 335 9.6
2009-03-27 08:11:27 51°13.308 2°51.413 -999 1.1 332 9.5
2009-03-27 08:11:33 51°13.31 2°51.412 359.1 1.2 336 9.6
2009-03-27 08:11:38 51°13.312 2°51.411 357.6 1.3 331 9.7
2009-03-27 08:11:43 51°13.314 2°51.409 356.3 1.4 329 9.8
2009-03-27 08:11:48 51°13.315 2°51.408 355.3 1.3 334 9.8
2009-03-27 08:11:53 51°13.317 2°51.407 354.5 1.3 332 9.9
2009-03-27 08:11:58 51°13.319 2°51.406 353.6 1.4 329 9.9
2009-03-27 08:12:03 51°13.32 2°51.404 352.2 1.3 336 10.1
2009-03-27 08:12:08 51°13.322 2°51.403 351.1 1.2 339 10.1
2009-03-27 08:12:13 51°13.323 2°51.401 350.3 1.2 333 10
2009-03-27 08:12:18 51°13.324 2°51.4 349.9 1.1 335 9.9
2009-03-27 08:12:23 51°13.326 2°51.399 349.9 1.1 323 9.8
2009-03-27 08:12:28 51°13.327 2°51.398 350 1.1 331 9.8
2009-03-27 08:12:33 51°13.328 2°51.396 349.8 1.2 328 9.9
2009-03-27 08:12:38 51°13.329 2°51.395 349 1.2 331 10
2009-03-27 08:12:43 51°13.331 2°51.393 348.2 1.1 322 10
2009-03-27 08:12:47 51°13.332 2°51.393 347.8 1 332 10.1
2009-03-27 08:12:53 51°13.334 2°51.391 347.7 1.1 332 10.1
2009-03-27 08:12:58 51°13.335 2°51.391 347.7 1.1 326 10.1
2009-03-27 08:13:03 51°13.337 2°51.39 347.5 1 323 10
2009-03-27 08:13:08 51°13.338 2°51.389 347.7 1.1 323 10.1
2009-03-27 08:13:13 51°13.339 2°51.387 347 1 328 10.2
2009-03-27 08:13:18 51°13.34 2°51.385 346.3 1 327 10.1
2009-03-27 08:13:23 51°13.341 2°51.383 345.4 0.9 312 10.1
2009-03-27 08:13:28 51°13.342 2°51.382 345 1 310 10
2009-03-27 08:13:33 51°13.343 2°51.381 345 0.9 314 10
2009-03-27 08:13:38 51°13.344 2°51.38 344.8 1 312 10.1
2009-03-27 08:13:42 51°13.344 2°51.378 344 0.9 326 10
2009-03-27 08:13:48 51°13.345 2°51.377 343.4 0.9 314 10
2009-03-27 08:13:53 51°13.346 2°51.375 343.4 0.8 326 10.1
2009-03-27 08:13:58 51°13.347 2°51.374 343.5 0.9 319 10.1
2009-03-27 08:14:03 51°13.348 2°51.373 343.7 0.9 316 10
2009-03-27 08:14:07 51°13.349 2°51.372 344 0.9 313 10
2009-03-27 08:14:13 51°13.35 2°51.371 343.4 0.8 320 10.1
2009-03-27 08:14:18 51°13.351 2°51.369 343.5 0.8 319 10.1
2009-03-27 08:14:23 51°13.351 2°51.368 343.7 0.8 314 10.1
2009-03-27 08:14:28 51°13.352 2°51.367 343.7 0.8 314 10.2
2009-03-27 08:14:33 51°13.353 2°51.366 343.4 0.9 310 10.3
2009-03-27 08:14:38 51°13.354 2°51.365 342.8 1 322 10.5
2009-03-27 08:14:43 51°13.356 2°51.365 341.9 0.9 343 10.4
2009-03-27 08:14:48 51°13.356 2°51.363 341.5 0.8 316 10.2
2009-03-27 08:14:53 51°13.357 2°51.362 341.5 0.8 328 10
2009-03-27 08:14:58 51°13.357 2°51.361 341.9 0.7 309 9.9
2009-03-27 08:15:03 51°13.358 2°51.361 342.7 0.6 325 9.9
2009-03-27 08:15:08 51°13.359 2°51.36 342.8 0.8 303 10
2009-03-27 08:15:13 51°13.36 2°51.358 342.9 0.8 316 10.2
2009-03-27 08:15:18 51°13.36 2°51.356 342.5 0.8 316 10.4
2009-03-27 08:15:23 51°13.361 2°51.355 341.9 0.8 313 10.4
2009-03-27 08:15:28 51°13.362 2°51.353 341.5 0.9 302 10.4
2009-03-27 08:15:33 51°13.363 2°51.353 341.2 0.8 315 10.5
2009-03-27 08:15:38 51°13.363 2°51.351 340.7 0.8 310 10.5
2009-03-27 08:15:43 51°13.365 2°51.35 340.2 0.9 315 10.5
2009-03-27 08:15:48 51°13.365 2°51.348 340.1 0.9 313 10.5
2009-03-27 08:15:53 51°13.366 2°51.347 339.9 0.9 318 10.6
2009-03-27 08:15:58 51°13.367 2°51.345 339.5 1 312 10.6
2009-03-27 08:16:03 51°13.368 2°51.343 339 1 318 10.5
2009-03-27 08:16:07 51°13.369 2°51.342 338.8 0.9 310 10.4
2009-03-27 08:16:13 51°13.37 2°51.341 339 0.8 318 10.4
2009-03-27 08:16:18 51°13.37 2°51.339 339 0.9 320 10.4
2009-03-27 08:16:23 51°13.371 2°51.337 338.9 1 305 10.4
2009-03-27 08:16:28 51°13.372 2°51.336 338.7 0.8 304 10.2
2009-03-27 08:16:33 51°13.373 2°51.335 339.4 0.7 303 10.1
2009-03-27 08:16:38 51°13.374 2°51.335 340.2 0.6 305 9.9
2009-03-27 08:16:43 51°13.374 2°51.333 341 0.8 317 9.9
2009-03-27 08:16:48 51°13.375 2°51.332 341 0.7 310 9.9
2009-03-27 08:16:53 51°13.376 2°51.331 341.3 0.8 301 10.1
2009-03-27 08:16:58 51°13.376 2°51.33 341.7 0.8 321 10.3
2009-03-27 08:17:03 51°13.377 2°51.329 341.3 0.7 323 10.5
2009-03-27 08:17:08 51°13.378 2°51.328 340.5 0.8 322 10.6
2009-03-27 08:17:13 51°13.379 2°51.326 340.8 0.8 311 10.6
2009-03-27 08:17:18 51°13.379 2°51.325 341.4 0.9 314 10.7
2009-03-27 08:17:23 51°13.38 2°51.323 341.6 0.8 332 10.7
2009-03-27 08:17:27 51°13.381 2°51.322 341.7 0.9 325 10.7
2009-03-27 08:17:33 51°13.382 2°51.32 341.4 0.9 319 10.6
2009-03-27 08:17:38 51°13.383 2°51.319 341.3 0.9 326 10.5
2009-03-27 08:17:43 51°13.384 2°51.317 341.1 0.9 317 10.5
2009-03-27 08:17:48 51°13.385 2°51.316 340.6 0.8 328 10.3
2009-03-27 08:17:53 51°13.385 2°51.314 341 1 316 10.4
2009-03-27 08:17:58 51°13.386 2°51.313 340.6 1 320 10.4
2009-03-27 08:18:03 51°13.388 2°51.312 340.2 1 338 10.4
2009-03-27 08:18:08 51°13.389 2°51.313 339.9 0.9 341 10.1
2009-03-27 08:18:13 51°13.39 2°51.312 339.4 0.9 325 10
2009-03-27 08:18:18 51°13.391 2°51.311 337.6 0.8 331 10.1
2009-03-27 08:18:23 51°13.392 2°51.31 336.4 0.7 316 10.2
2009-03-27 08:18:28 51°13.392 2°51.309 335.9 0.7 324 10.4
2009-03-27 08:18:33 51°13.393 2°51.308 335.8 0.6 314 10.4
2009-03-27 08:18:38 51°13.393 2°51.306 335.6 0.5 295 10.5
2009-03-27 08:18:43 51°13.394 2°51.306 335.6 0.4 284 10.6
2009-03-27 08:18:48 51°13.394 2°51.306 336.2 0.1 274 10.5
2009-03-27 08:18:53 51°13.394 2°51.305 338.3 0.4 243 10.5
2009-03-27 08:18:58 51°13.394 2°51.305 340.6 0.1 325 10.4
2009-03-27 08:19:03 51°13.393 2°51.304 340.5 0.3 274 10.5
2009-03-27 08:19:08 51°13.393 2°51.303 342.1 0.1 50 10.7
2009-03-27 08:19:13 51°13.393 2°51.303 343 0.1 237 10.8
2009-03-27 08:19:18 51°13.392 2°51.303 343.7 0.2 174 10.8
2009-03-27 08:19:22 51°13.392 2°51.302 345.3 0.4 208 10.7
2009-03-27 08:19:28 51°13.391 2°51.302 347 0.3 178 10.7
2009-03-27 08:19:33 51°13.391 2°51.302 348.7 0.3 188 10.7
2009-03-27 08:19:38 51°13.391 2°51.302 350.3 0.4 185 10.7
2009-03-27 08:19:43 51°13.39 2°51.303 351.6 0.3 159 10.7
2009-03-27 08:19:48 51°13.39 2°51.303 351.9 0.5 196 10.7
2009-03-27 08:19:53 51°13.389 2°51.303 352.6 0.4 175 10.8
2009-03-27 08:19:58 51°13.389 2°51.303 352.8 0.4 150 10.6
2009-03-27 08:20:03 51°13.388 2°51.302 353.5 0.5 177 10.5
2009-03-27 08:20:08 51°13.387 2°51.303 354.2 0.5 176 10.5
2009-03-27 08:20:13 51°13.386 2°51.303 355.5 0.5 170 10.5
2009-03-27 08:20:18 51°13.386 2°51.303 356.3 0.5 178 10.6
2009-03-27 08:20:23 51°13.385 2°51.303 356.7 0.6 172 10.5
2009-03-27 08:20:28 51°13.384 2°51.303 357.3 0.5 175 10.6
2009-03-27 08:20:33 51°13.383 2°51.304 358 0.6 180 10.6
2009-03-27 08:20:38 51°13.383 2°51.305 358.3 0.7 189 10.5
2009-03-27 08:20:43 51°13.382 2°51.305 359.9 0.7 145 10.5
2009-03-27 08:20:47 51°13.381 2°51.305 0.7 0.7 166 10.3
2009-03-27 08:20:53 51°13.38 2°51.305 1 0.7 161 10.2
2009-03-27 08:20:58 51°13.379 2°51.305 1.1 0.7 152 10.3
2009-03-27 08:21:03 51°13.378 2°51.305 1.2 0.6 182 10.2
2009-03-27 08:21:08 51°13.377 2°51.304 2 0.7 202 10.3
2009-03-27 08:21:13 51°13.376 2°51.306 3.2 0.7 181 10.2
2009-03-27 08:21:18 51°13.375 2°51.306 4.1 0.6 186 10.3
2009-03-27 08:21:23 51°13.374 2°51.306 3.9 0.8 151 10.4
2009-03-27 08:21:28 51°13.373 2°51.305 4.1 0.8 187 10.3
2009-03-27 08:21:33 51°13.372 2°51.306 4.5 0.8 179 10.3
2009-03-27 08:21:38 51°13.371 2°51.306 5.7 0.8 183 10.4
2009-03-27 08:21:43 51°13.37 2°51.306 6.8 0.7 180 10.5
2009-03-27 08:21:48 51°13.368 2°51.306 7.3 0.8 197 10.5
2009-03-27 08:21:53 51°13.368 2°51.306 7.7 0.7 189 10.7
2009-03-27 08:21:58 51°13.366 2°51.306 8.5 0.7 191 10.5
2009-03-27 08:22:03 51°13.365 2°51.306 9.2 0.7 166 10.5
2009-03-27 08:22:07 51°13.364 2°51.306 9.8 0.8 181 10.4
2009-03-27 08:22:13 51°13.363 2°51.307 9.9 0.9 166 10.4
2009-03-27 08:22:18 51°13.362 2°51.306 10.9 0.8 175 10.3
2009-03-27 08:22:23 51°13.361 2°51.306 11.5 0.8 190 10.2
2009-03-27 08:22:28 51°13.359 2°51.306 12.8 0.8 188 10.4
2009-03-27 08:22:33 51°13.358 2°51.306 13.2 0.8 182 10.5
2009-03-27 08:22:38 51°13.357 2°51.306 13.3 0.9 182 10.5
2009-03-27 08:22:43 51°13.356 2°51.306 13.7 1 173 10.6
2009-03-27 08:22:48 51°13.354 2°51.306 14 0.9 168 10.7
2009-03-27 08:22:53 51°13.353 2°51.306 14.3 0.9 178 10.5
2009-03-27 08:22:58 51°13.352 2°51.306 15.2 1 164 10.3
2009-03-27 08:23:03 51°13.351 2°51.306 16.5 0.9 167 10.3
2009-03-27 08:23:08 51°13.35 2°51.306 17.1 0.9 178 10.3
2009-03-27 08:23:13 51°13.349 2°51.307 17.7 0.8 186 10.3
2009-03-27 08:23:18 51°13.348 2°51.306 17.5 0.7 192 10.3
2009-03-27 08:23:23 51°13.347 2°51.307 18.1 0.8 171 10.4
2009-03-27 08:23:28 51°13.346 2°51.307 17.3 0.8 174 10.5
2009-03-27 08:23:33 51°13.345 2°51.306 17.3 0.7 176 10.5
2009-03-27 08:23:38 51°13.344 2°51.306 17.2 0.7 210 10.5
2009-03-27 08:23:43 51°13.343 2°51.307 17.5 0.9 154 10.4
2009-03-27 08:23:48 51°13.342 2°51.307 17.7 0.6 183 10.3
2009-03-27 08:23:53 51°13.341 2°51.307 18.2 0.7 185 10.3
2009-03-27 08:23:58 51°13.34 2°51.307 17.8 0.7 184 10.4
2009-03-27 08:24:03 51°13.339 2°51.307 17.5 0.8 177 10.5
2009-03-27 08:24:08 51°13.338 2°51.306 17.2 0.7 205 10.4
2009-03-27 08:24:13 51°13.337 2°51.308 17 0.7 186 10.4
2009-03-27 08:24:18 51°13.336 2°51.308 17.5 0.6 176 10.4
2009-03-27 08:24:23 51°13.335 2°51.308 16.6 0.7 176 10.4
2009-03-27 08:24:28 51°13.334 2°51.307 15.5 0.6 189 10.3
2009-03-27 08:24:33 51°13.333 2°51.307 15.6 0.7 184 10.2
2009-03-27 08:24:38 51°13.332 2°51.307 15.5 0.6 193 10.2
2009-03-27 08:24:43 51°13.331 2°51.307 14.8 0.6 187 10.3
2009-03-27 08:24:48 51°13.33 2°51.307 14.3 0.6 179 10.3
2009-03-27 08:24:53 51°13.329 2°51.307 14 0.6 190 10.4
2009-03-27 08:24:58 51°13.328 2°51.307 13.7 0.6 188 10.4
2009-03-27 08:25:03 51°13.327 2°51.308 13.6 0.7 172 10.4
2009-03-27 08:25:08 51°13.327 2°51.308 13.7 0.6 165 10.4
2009-03-27 08:25:13 51°13.326 2°51.307 13.2 0.7 157 10.3
2009-03-27 08:25:18 51°13.325 2°51.307 12.8 0.6 182 10.2
2009-03-27 08:25:23 51°13.324 2°51.308 12.5 0.6 189 10.1
2009-03-27 08:25:27 51°13.324 2°51.308 12 0.6 195 10.2
2009-03-27 08:25:33 51°13.323 2°51.308 11.6 0.6 191 10.1
2009-03-27 08:25:38 51°13.322 2°51.308 10.9 0.6 180 10
2009-03-27 08:25:43 51°13.321 2°51.308 10.3 0.6 166 10
2009-03-27 08:25:48 51°13.32 2°51.307 10.5 0.6 171 10
2009-03-27 08:25:53 51°13.319 2°51.307 10.3 0.6 180 10.1
2009-03-27 08:25:58 51°13.318 2°51.307 9.7 0.6 197 10.2
2009-03-27 08:26:03 51°13.317 2°51.307 8.9 0.5 180 10.3
2009-03-27 08:26:08 51°13.316 2°51.307 8.2 0.6 184 10.4
2009-03-27 08:26:13 51°13.315 2°51.306 7.4 0.7 188 10.3
2009-03-27 08:26:18 51°13.315 2°51.307 6 0.6 190 10.3
2009-03-27 08:26:23 51°13.314 2°51.306 6.9 0.6 184 10.3
2009-03-27 08:26:28 51°13.313 2°51.306 6.4 0.6 191 10.2
2009-03-27 08:26:33 51°13.312 2°51.306 5.6 0.7 205 10.3
2009-03-27 08:26:38 51°13.311 2°51.306 5.2 0.7 177 10.3
2009-03-27 08:26:43 51°13.311 2°51.306 4.4 0.6 170 10.4
2009-03-27 08:26:47 51°13.31 2°51.306 3.6 0.7 156 10.3
2009-03-27 08:26:53 51°13.309 2°51.305 2.6 0.6 186 10.1
2009-03-27 08:26:58 51°13.308 2°51.306 2.7 0.8 182 10
2009-03-27 08:27:03 51°13.307 2°51.306 3 0.7 181 10
2009-03-27 08:27:08 51°13.306 2°51.306 2.8 0.6 180 10
2009-03-27 08:27:13 51°13.306 2°51.306 2.3 0.6 170 10.1
2009-03-27 08:27:18 51°13.305 2°51.306 1.5 0.6 191 10.2
2009-03-27 08:27:23 51°13.304 2°51.307 1.3 0.6 160 10.2
2009-03-27 08:27:28 51°13.303 2°51.307 1.7 0.6 164 10.1
2009-03-27 08:27:33 51°13.302 2°51.306 1 0.7 160 10.1
2009-03-27 08:27:38 51°13.301 2°51.306 0.3 0.7 172 10
2009-03-27 08:27:43 51°13.301 2°51.306 0.8 0.7 192 10
2009-03-27 08:27:48 51°13.3 2°51.306 0.9 0.7 196 10.1
2009-03-27 08:27:53 51°13.299 2°51.307 0.4 0.6 170 10.2
2009-03-27 08:27:58 51°13.298 2°51.306 359.5 0.7 171 10.2
2009-03-27 08:28:03 51°13.297 2°51.306 359.2 0.7 195 10.2
2009-03-27 08:28:08 51°13.296 2°51.306 359.3 0.6 174 10.2
2009-03-27 08:28:13 51°13.295 2°51.307 359.5 0.6 181 10.3
2009-03-27 08:28:18 51°13.294 2°51.307 358.6 0.7 173 10.1
2009-03-27 08:28:23 51°13.293 2°51.306 358.6 0.7 183 10.1
2009-03-27 08:28:28 51°13.293 2°51.306 359.1 0.7 180 10
2009-03-27 08:28:33 51°13.292 2°51.307 -999 0.8 188 10
2009-03-27 08:28:38 51°13.29 2°51.307 0.8 0.9 149 10.1
2009-03-27 08:28:43 51°13.289 2°51.306 0.2 0.8 200 10
2009-03-27 08:28:47 51°13.289 2°51.308 0.4 0.7 191 9.9
2009-03-27 08:28:53 51°13.288 2°51.308 1.5 0.6 191 10.1
2009-03-27 08:28:58 51°13.287 2°51.308 1.6 0.7 168 10.1
2009-03-27 08:29:03 51°13.286 2°51.308 1.3 0.8 182 10.1
2009-03-27 08:29:08 51°13.284 2°51.308 2.3 0.8 162 10.1
2009-03-27 08:29:13 51°13.284 2°51.308 2.7 0.7 160 10.1
2009-03-27 08:29:18 51°13.283 2°51.308 2.6 0.7 154 10
2009-03-27 08:29:23 51°13.281 2°51.308 2.4 0.8 193 10.1
2009-03-27 08:29:28 51°13.28 2°51.308 2.4 0.8 190 10.1
2009-03-27 08:29:33 51°13.28 2°51.309 2.7 0.7 182 10.2
2009-03-27 08:29:38 51°13.278 2°51.309 2.4 0.8 161 10.2
2009-03-27 08:29:43 51°13.277 2°51.308 1.8 0.8 180 10.1
2009-03-27 08:29:48 51°13.276 2°51.308 1.9 0.9 177 10
2009-03-27 08:29:53 51°13.275 2°51.309 2.6 0.9 198 9.8
2009-03-27 08:29:58 51°13.274 2°51.309 3.6 0.8 170 10
2009-03-27 08:30:03 51°13.273 2°51.309 2.9 0.9 171 9.9
2009-03-27 08:30:07 51°13.272 2°51.309 2.9 0.8 175 9.9
2009-03-27 08:30:13 51°13.27 2°51.309 3.3 0.8 164 9.9
2009-03-27 08:30:18 51°13.269 2°51.309 3.7 0.7 181 9.9
2009-03-27 08:30:23 51°13.268 2°51.309 3.9 0.8 174 10
2009-03-27 08:30:28 51°13.267 2°51.309 4.1 0.8 179 10.1
2009-03-27 08:30:33 51°13.266 2°51.309 4.1 0.8 165 10.1
2009-03-27 08:30:38 51°13.265 2°51.309 4.5 0.9 161 10.1
2009-03-27 08:30:43 51°13.263 2°51.309 4.8 0.9 190 10.1
2009-03-27 08:30:48 51°13.262 2°51.31 5.8 0.9 196 9.9
2009-03-27 08:30:53 51°13.261 2°51.311 6.6 0.9 168 9.9
2009-03-27 08:30:58 51°13.26 2°51.31 6.7 0.9 197 9.9
2009-03-27 08:31:02 51°13.259 2°51.311 6.8 0.9 172 10
2009-03-27 08:31:08 51°13.257 2°51.31 6.7 0.9 178 10.2
2009-03-27 08:31:13 51°13.256 2°51.31 6.6 0.9 175 10.1
2009-03-27 08:31:18 51°13.255 2°51.31 7 1 189 10.1
2009-03-27 08:31:23 51°13.254 2°51.311 8.4 0.9 173 10.1
2009-03-27 08:31:27 51°13.253 2°51.31 9.1 0.9 186 10
2009-03-27 08:31:33 51°13.251 2°51.31 8.8 0.9 190 10
2009-03-27 08:31:38 51°13.25 2°51.31 8.9 0.9 188 9.9
2009-03-27 08:31:43 51°13.249 2°51.31 9.4 0.9 179 9.9
2009-03-27 08:31:48 51°13.247 2°51.309 9.5 0.9 174 9.9
2009-03-27 08:31:53 51°13.246 2°51.309 9.2 1 180 9.9
2009-03-27 08:31:58 51°13.245 2°51.309 9 0.9 194 9.9
2009-03-27 08:32:03 51°13.244 2°51.31 9.4 0.9 172 9.9
2009-03-27 08:32:08 51°13.242 2°51.309 8.8 0.9 181 9.9
2009-03-27 08:32:13 51°13.241 2°51.309 8.9 0.9 182 9.9
2009-03-27 08:32:18 51°13.24 2°51.309 9.5 0.8 179 10
2009-03-27 08:32:23 51°13.239 2°51.309 9.8 0.9 165 10.1
2009-03-27 08:32:28 51°13.237 2°51.309 9.5 0.8 188 10
2009-03-27 08:32:33 51°13.236 2°51.309 9.8 0.9 189 9.8
2009-03-27 08:32:38 51°13.235 2°51.31 11 1 191 9.7
2009-03-27 08:32:43 51°13.234 2°51.31 11.8 0.9 171 9.7
2009-03-27 08:32:48 51°13.232 2°51.31 11.6 0.9 177 9.8
2009-03-27 08:32:53 51°13.231 2°51.31 11.4 0.9 175 9.9
2009-03-27 08:32:58 51°13.23 2°51.31 12 1 165 9.9
2009-03-27 08:33:03 51°13.229 2°51.309 11.9 0.8 193 9.8
2009-03-27 08:33:08 51°13.227 2°51.31 11.7 0.9 175 10
2009-03-27 08:33:13 51°13.226 2°51.31 11.9 0.9 177 10
2009-03-27 08:33:18 51°13.225 2°51.31 11.7 0.9 169 10
2009-03-27 08:33:23 51°13.224 2°51.309 11.7 0.8 186 9.9
2009-03-27 08:33:27 51°13.223 2°51.31 11.9 0.8 194 9.9
2009-03-27 08:33:33 51°13.221 2°51.31 12.1 0.9 176 10
2009-03-27 08:33:38 51°13.22 2°51.31 11.8 0.9 182 9.9
2009-03-27 08:33:43 51°13.219 2°51.309 11.7 0.8 182 9.8
2009-03-27 08:33:48 51°13.218 2°51.309 11.7 0.8 188 9.6
2009-03-27 08:33:53 51°13.217 2°51.309 11.7 0.8 199 9.6
2009-03-27 08:33:58 51°13.216 2°51.31 11.6 0.7 192 9.8
2009-03-27 08:34:03 51°13.215 2°51.309 11.3 0.8 167 9.9
2009-03-27 08:34:08 51°13.214 2°51.308 10.5 0.8 172 9.7
2009-03-27 08:34:13 51°13.213 2°51.308 10.5 0.8 209 9.7
2009-03-27 08:34:18 51°13.212 2°51.309 10.8 0.7 187 9.8
2009-03-27 08:34:23 51°13.211 2°51.308 10.2 0.8 190 9.8
2009-03-27 08:34:28 51°13.21 2°51.308 10 0.8 184 9.9
2009-03-27 08:34:33 51°13.209 2°51.308 10.2 0.7 176 9.9
2009-03-27 08:34:38 51°13.208 2°51.307 9.8 0.8 184 9.9
2009-03-27 08:34:43 51°13.207 2°51.307 9.6 0.8 203 9.9
2009-03-27 08:34:47 51°13.206 2°51.307 9.7 0.7 191 9.8
2009-03-27 08:34:53 51°13.205 2°51.307 9.7 0.7 182 9.7
2009-03-27 08:34:58 51°13.204 2°51.307 8.7 0.7 201 9.8
2009-03-27 08:35:03 51°13.203 2°51.307 8 0.7 170 9.9
2009-03-27 08:35:08 51°13.203 2°51.307 7.5 0.7 174 9.9
2009-03-27 08:35:13 51°13.202 2°51.306 7.3 0.8 174 9.9
2009-03-27 08:35:18 51°13.2 2°51.306 6.8 0.8 203 9.8
2009-03-27 08:35:23 51°13.2 2°51.307 7.5 0.7 169 9.6
2009-03-27 08:35:28 51°13.199 2°51.308 7.6 0.8 149 9.4
2009-03-27 08:35:33 51°13.198 2°51.307 6.6 0.8 190 9.4
2009-03-27 08:35:38 51°13.197 2°51.306 5.5 0.9 203 9.4
2009-03-27 08:35:43 51°13.196 2°51.307 5.7 0.8 179 9.6
2009-03-27 08:35:48 51°13.194 2°51.307 5.9 0.8 155 9.8
2009-03-27 08:35:53 51°13.193 2°51.307 4.5 0.8 163 9.9
2009-03-27 08:35:58 51°13.192 2°51.306 4.1 0.8 170 9.7
2009-03-27 08:36:03 51°13.191 2°51.306 4.4 0.8 204 9.6
2009-03-27 08:36:07 51°13.19 2°51.307 4.8 0.8 204 9.7
2009-03-27 08:36:13 51°13.189 2°51.306 4.8 0.7 193 9.9
2009-03-27 08:36:18 51°13.188 2°51.306 4 0.7 177 9.9
2009-03-27 08:36:23 51°13.187 2°51.306 3.3 0.7 196 9.9
2009-03-27 08:36:28 51°13.186 2°51.305 3 0.5 180 10
2009-03-27 08:36:33 51°13.186 2°51.305 2.6 0.3 166 10.1
2009-03-27 08:36:38 51°13.185 2°51.305 0.3 0.2 188 10.1
2009-03-27 08:36:43 51°13.186 2°51.305 358.2 0.2 234 10
2009-03-27 08:36:48 51°13.186 2°51.305 356 0.3 326 10
2009-03-27 08:36:53 51°13.187 2°51.305 354.2 0.5 348 10
2009-03-27 08:36:58 51°13.187 2°51.303 351.6 0.6 328 9.8
2009-03-27 08:37:03 51°13.188 2°51.303 349.4 0.7 324 9.8
2009-03-27 08:37:08 51°13.189 2°51.301 346.6 0.9 321 9.7
2009-03-27 08:37:13 51°13.19 2°51.3 344.3 1.1 323 9.7
2009-03-27 08:37:18 51°13.191 2°51.297 340.8 1.4 321 9.8
2009-03-27 08:37:23 51°13.193 2°51.295 336.9 1.4 320 10
2009-03-27 08:37:28 51°13.194 2°51.292 333.3 1.6 308 9.9
2009-03-27 08:37:33 51°13.196 2°51.29 330.6 1.6 312 9.9
2009-03-27 08:37:38 51°13.198 2°51.287 327.9 1.8 308 9.9
2009-03-27 08:37:43 51°13.199 2°51.284 324.6 1.8 311 9.9
2009-03-27 08:37:48 51°13.201 2°51.28 321.5 2 304 10
2009-03-27 08:37:53 51°13.203 2°51.277 318.9 2.1 301 9.9
2009-03-27 08:37:58 51°13.204 2°51.273 315.8 2.1 297 10
2009-03-27 08:38:03 51°13.205 2°51.268 312.7 2.2 297 10
2009-03-27 08:38:07 51°13.206 2°51.264 308.8 2.5 292 9.9
2009-03-27 08:38:13 51°13.208 2°51.258 304.6 2.8 287 9.9
2009-03-27 08:38:18 51°13.209 2°51.251 300.9 2.9 284 9.9
2009-03-27 08:38:23 51°13.209 2°51.245 294.2 3 281 10
2009-03-27 08:38:28 51°13.21 2°51.237 288.3 3.2 273 9.9
2009-03-27 08:38:33 51°13.209 2°51.23 283.5 3.2 266 10
2009-03-27 08:38:38 51°13.209 2°51.223 276.3 3.3 259 10.1
2009-03-27 08:38:43 51°13.208 2°51.216 269.7 3.3 256 10.1
2009-03-27 08:38:48 51°13.206 2°51.209 263.2 3.3 249 10.1
2009-03-27 08:38:53 51°13.204 2°51.203 258.8 3.3 246 10.1
2009-03-27 08:38:58 51°13.202 2°51.196 251.5 3.2 236 10
2009-03-27 08:39:03 51°13.199 2°51.191 247.6 3.3 235 9.9
2009-03-27 08:39:08 51°13.196 2°51.186 240.9 2.9 228 9.9
2009-03-27 08:39:13 51°13.194 2°51.182 237.3 2.8 226 9.9
2009-03-27 08:39:18 51°13.191 2°51.177 233.2 2.7 223 9.9
2009-03-27 08:39:23 51°13.188 2°51.173 229.7 2.8 224 9.8
2009-03-27 08:39:27 51°13.185 2°51.17 226.2 2.7 222 9.9
2009-03-27 08:39:33 51°13.182 2°51.165 223.7 2.6 221 9.8
2009-03-27 08:39:38 51°13.179 2°51.162 222.4 2.6 214 9.6
2009-03-27 08:39:43 51°13.175 2°51.159 221.5 2.8 213 9.5
2009-03-27 08:39:48 51°13.172 2°51.156 221.2 2.8 214 9.7
2009-03-27 08:39:53 51°13.169 2°51.153 220.9 2.8 212 9.7
2009-03-27 08:39:58 51°13.166 2°51.15 221.5 2.9 205 9.8
2009-03-27 08:40:03 51°13.163 2°51.147 222.8 2.7 207 9.6
2009-03-27 08:40:08 51°13.16 2°51.144 223.9 2.7 212 9.7
2009-03-27 08:40:13 51°13.157 2°51.14 224.7 2.6 219 9.8
2009-03-27 08:40:18 51°13.154 2°51.136 225.9 2.7 220 10
2009-03-27 08:40:22 51°13.151 2°51.133 227.7 2.7 220 10.3
2009-03-27 08:40:28 51°13.148 2°51.128 230 2.9 222 10.5
2009-03-27 08:40:33 51°13.145 2°51.124 232.5 3 223 10.7
2009-03-27 08:40:38 51°13.142 2°51.119 234.5 3.2 224 10.8
2009-03-27 08:40:43 51°13.139 2°51.114 236.4 3.1 226 10.6
2009-03-27 08:40:47 51°13.137 2°51.11 237.7 3.2 232 10.5
2009-03-27 08:40:53 51°13.133 2°51.103 238.3 3.3 230 10.4
2009-03-27 08:40:58 51°13.13 2°51.097 239 3.4 234 10.4
2009-03-27 08:41:03 51°13.127 2°51.091 239.6 3.6 227 10.4
2009-03-27 08:41:08 51°13.124 2°51.085 239.6 3.6 234 10.2
2009-03-27 08:41:13 51°13.121 2°51.079 240.5 3.7 231 10.1
2009-03-27 08:41:18 51°13.118 2°51.072 240 3.6 233 10.1
2009-03-27 08:41:23 51°13.115 2°51.066 240.6 3.5 235 9.9
2009-03-27 08:41:28 51°13.113 2°51.059 241.2 3.6 234 9.7
2009-03-27 08:41:33 51°13.109 2°51.053 240.2 3.6 237 9.7
2009-03-27 08:41:38 51°13.106 2°51.047 239.8 3.7 233 9.7
2009-03-27 08:41:42 51°13.104 2°51.041 239.3 3.7 235 9.7
2009-03-27 08:41:48 51°13.1 2°51.034 239.7 3.7 231 10
2009-03-27 08:41:53 51°13.097 2°51.027 239.6 3.7 235 10
2009-03-27 08:41:58 51°13.094 2°51.021 239 3.7 231 10.1
2009-03-27 08:42:03 51°13.091 2°51.014 238.9 3.7 238 10.1
2009-03-27 08:42:08 51°13.088 2°51.007 238.9 3.8 235 10.1
2009-03-27 08:42:13 51°13.085 2°51 238.7 3.7 237 10.1
2009-03-27 08:42:18 51°13.082 2°50.993 238.4 3.7 234 10
2009-03-27 08:42:23 51°13.079 2°50.986 237.2 3.9 232 10
2009-03-27 08:42:28 51°13.075 2°50.981 237.3 3.7 232 9.9
2009-03-27 08:42:33 51°13.072 2°50.974 237.1 3.8 230 9.8
2009-03-27 08:42:38 51°13.069 2°50.968 236.3 3.8 230 9.7
2009-03-27 08:42:43 51°13.066 2°50.961 237.4 3.8 232 9.8
2009-03-27 08:42:48 51°13.063 2°50.955 237.9 3.7 231 9.8
2009-03-27 08:42:53 51°13.06 2°50.949 237.8 3.6 233 9.7
2009-03-27 08:42:58 51°13.057 2°50.943 237.8 3.6 228 10
2009-03-27 08:43:03 51°13.054 2°50.937 237.8 3.7 230 10
2009-03-27 08:43:07 51°13.051 2°50.932 237.4 3.5 234 10.1
2009-03-27 08:43:13 51°13.048 2°50.925 237 3.5 230 10
2009-03-27 08:43:18 51°13.045 2°50.919 236.4 3.5 230 10
2009-03-27 08:43:23 51°13.041 2°50.912 236.4 3.6 233 9.9
2009-03-27 08:43:28 51°13.038 2°50.906 236.6 3.6 232 10
2009-03-27 08:43:33 51°13.035 2°50.9 236.6 3.7 232 10.1
2009-03-27 08:43:38 51°13.032 2°50.894 237 3.7 229 10.2
2009-03-27 08:43:43 51°13.029 2°50.887 237.2 3.7 232 10
2009-03-27 08:43:48 51°13.025 2°50.881 236.2 3.7 230 9.9
2009-03-27 08:43:53 51°13.022 2°50.874 236.1 3.7 231 9.9
2009-03-27 08:43:58 51°13.019 2°50.868 236 3.6 229 9.9
2009-03-27 08:44:03 51°13.016 2°50.862 235.8 3.7 233 9.9
2009-03-27 08:44:08 51°13.013 2°50.856 235 3.7 232 9.9
2009-03-27 08:44:13 51°13.009 2°50.85 234.6 3.8 230 9.9
2009-03-27 08:44:18 51°13.006 2°50.843 234.7 3.8 227 9.9
2009-03-27 08:44:23 51°13.003 2°50.837 234.8 3.8 229 9.7
2009-03-27 08:44:27 51°13 2°50.832 235 3.7 230 9.6
2009-03-27 08:44:33 51°12.996 2°50.824 234.8 3.6 232 9.7
2009-03-27 08:44:38 51°12.993 2°50.818 235.3 3.7 233 9.8
2009-03-27 08:44:43 51°12.989 2°50.811 234.7 3.8 226 9.8
2009-03-27 08:44:48 51°12.987 2°50.804 235.3 3.7 231 9.9
2009-03-27 08:44:53 51°12.983 2°50.798 235.8 3.7 232 9.9
2009-03-27 08:44:58 51°12.98 2°50.791 236 3.7 234 9.9
2009-03-27 08:45:03 51°12.976 2°50.785 235.9 3.8 229 9.9
2009-03-27 08:45:08 51°12.973 2°50.779 235 3.7 230 9.8
2009-03-27 08:45:13 51°12.97 2°50.773 235.2 3.7 229 9.8
2009-03-27 08:45:18 51°12.967 2°50.767 235.5 3.8 227 9.9
2009-03-27 08:45:22 51°12.964 2°50.762 235.9 3.7 228 9.9
2009-03-27 08:45:28 51°12.96 2°50.755 236 3.6 226 9.8
2009-03-27 08:45:33 51°12.958 2°50.748 235.5 3.4 231 9.7
2009-03-27 08:45:38 51°12.955 2°50.743 235.7 3.3 232 9.8
2009-03-27 08:45:43 51°12.951 2°50.738 235.6 3.3 228 10
2009-03-27 08:45:47 51°12.949 2°50.733 235.3 3.2 229 10
2009-03-27 08:45:53 51°12.945 2°50.727 235.3 3.2 231 10
2009-03-27 08:45:58 51°12.942 2°50.721 235.2 3.2 228 10
2009-03-27 08:46:03 51°12.94 2°50.715 235.3 3.2 229 10
2009-03-27 08:46:08 51°12.937 2°50.71 235.8 3.1 230 10.1
2009-03-27 08:46:13 51°12.934 2°50.705 235.8 3.1 223 10
2009-03-27 08:46:18 51°12.931 2°50.7 235.6 3 234 9.9
2009-03-27 08:46:23 51°12.928 2°50.695 234.4 3.1 225 9.9
2009-03-27 08:46:28 51°12.925 2°50.69 234.5 3.1 229 9.9
2009-03-27 08:46:33 51°12.923 2°50.684 235.1 3 232 9.9
2009-03-27 08:46:38 51°12.92 2°50.679 235.5 3 231 9.8
2009-03-27 08:46:43 51°12.917 2°50.674 235.9 3.2 230 9.9
2009-03-27 08:46:48 51°12.914 2°50.669 236.9 3.1 233 10
2009-03-27 08:46:53 51°12.912 2°50.663 237.8 3.2 232 10
2009-03-27 08:46:58 51°12.909 2°50.658 238.1 3.2 230 10
2009-03-27 08:47:03 51°12.906 2°50.652 237.9 3.2 230 9.9
2009-03-27 08:47:08 51°12.903 2°50.647 238 3 231 9.8
2009-03-27 08:47:13 51°12.901 2°50.642 237.3 3.1 230 9.8
2009-03-27 08:47:18 51°12.898 2°50.637 237.3 3.1 230 9.8
2009-03-27 08:47:23 51°12.896 2°50.631 237.4 3 233 9.8
2009-03-27 08:47:28 51°12.893 2°50.626 237.9 3.1 234 9.8
2009-03-27 08:47:33 51°12.89 2°50.621 237.6 3.1 233 9.7
2009-03-27 08:47:38 51°12.888 2°50.616 237.8 3.1 230 9.8
2009-03-27 08:47:43 51°12.885 2°50.61 238.1 3.1 218 9.7
2009-03-27 08:47:47 51°12.882 2°50.606 237.8 2.9 225 9.5
2009-03-27 08:47:53 51°12.879 2°50.601 236.4 2.9 231 9.4
2009-03-27 08:47:58 51°12.876 2°50.596 235.2 2.9 229 9.3
2009-03-27 08:48:03 51°12.874 2°50.591 235.9 2.8 231 9.4
2009-03-27 08:48:08 51°12.871 2°50.586 236.6 2.9 232 9.6
2009-03-27 08:48:13 51°12.869 2°50.581 237 3 234 9.8
2009-03-27 08:48:18 51°12.866 2°50.576 238.1 3.1 229 10
2009-03-27 08:48:23 51°12.864 2°50.571 239.3 3 233 9.9
2009-03-27 08:48:28 51°12.861 2°50.566 240.5 3.1 230 10
2009-03-27 08:48:33 51°12.858 2°50.56 241.4 3 235 9.8
2009-03-27 08:48:38 51°12.856 2°50.555 241.1 3 232 9.8
2009-03-27 08:48:43 51°12.853 2°50.55 240.9 3 235 9.9
2009-03-27 08:48:48 51°12.851 2°50.545 241.1 3 232 9.9
2009-03-27 08:48:53 51°12.849 2°50.539 241.8 3 231 9.8
2009-03-27 08:48:58 51°12.846 2°50.534 242.7 3 230 9.7
2009-03-27 08:49:03 51°12.844 2°50.528 243.2 2.9 240 9.5
2009-03-27 08:49:07 51°12.842 2°50.524 243 2.9 239 9.5
2009-03-27 08:49:13 51°12.839 2°50.517 242.5 3.1 237 9.5
2009-03-27 08:49:18 51°12.837 2°50.512 242.9 3.1 236 9.7
2009-03-27 08:49:23 51°12.834 2°50.506 243 3.1 231 9.7
2009-03-27 08:49:28 51°12.832 2°50.501 243.2 3 232 9.6
2009-03-27 08:49:33 51°12.83 2°50.496 242.4 2.8 232 9.5
2009-03-27 08:49:38 51°12.827 2°50.491 241.1 2.7 230 9.5
2009-03-27 08:49:43 51°12.825 2°50.487 240 2.8 232 9.6
2009-03-27 08:49:48 51°12.822 2°50.482 239 2.8 230 9.6
2009-03-27 08:49:53 51°12.819 2°50.477 238.6 2.9 232 9.6
2009-03-27 08:49:58 51°12.817 2°50.472 238.6 2.8 230 9.6
2009-03-27 08:50:03 51°12.815 2°50.467 238.9 2.8 235 9.7
2009-03-27 08:50:08 51°12.812 2°50.462 239.6 2.9 233 9.8
2009-03-27 08:50:13 51°12.81 2°50.457 240.4 2.8 236 9.9
2009-03-27 08:50:18 51°12.808 2°50.452 240.7 2.9 232 10
2009-03-27 08:50:23 51°12.806 2°50.447 240.8 2.9 233 10
2009-03-27 08:50:27 51°12.804 2°50.443 241.1 2.9 230 10
2009-03-27 08:50:33 51°12.801 2°50.437 241.2 2.9 230 9.8
2009-03-27 08:50:38 51°12.798 2°50.433 240.5 2.9 231 9.7
2009-03-27 08:50:43 51°12.795 2°50.428 240.4 2.8 232 9.5
2009-03-27 08:50:48 51°12.793 2°50.423 240.7 2.7 233 9.5
2009-03-27 08:50:53 51°12.79 2°50.418 240.4 2.8 236 9.5
2009-03-27 08:50:58 51°12.787 2°50.414 239.7 2.8 231 9.5
2009-03-27 08:51:03 51°12.785 2°50.409 239.4 2.9 227 9.5
2009-03-27 08:51:08 51°12.783 2°50.404 239.1 2.7 234 9.4
2009-03-27 08:51:13 51°12.78 2°50.399 239.2 2.8 233 9.5
2009-03-27 08:51:18 51°12.778 2°50.394 239.5 2.8 229 9.7
2009-03-27 08:51:22 51°12.776 2°50.391 239.9 2.6 231 9.8
2009-03-27 08:51:28 51°12.773 2°50.385 240 2.7 232 9.7
2009-03-27 08:51:33 51°12.771 2°50.38 239.8 2.8 231 9.7
2009-03-27 08:51:38 51°12.768 2°50.375 239.8 2.8 233 9.8
2009-03-27 08:51:43 51°12.766 2°50.37 240.1 2.9 235 9.8
2009-03-27 08:51:48 51°12.764 2°50.365 240.6 2.9 236 9.8
2009-03-27 08:51:53 51°12.761 2°50.36 241.8 2.9 236 9.7
2009-03-27 08:51:58 51°12.759 2°50.354 242.2 2.9 233 9.6
2009-03-27 08:52:03 51°12.757 2°50.349 242 2.9 235 9.6
2009-03-27 08:52:08 51°12.755 2°50.343 242.1 2.9 238 9.7
2009-03-27 08:52:13 51°12.752 2°50.338 241.8 3 234 9.7
2009-03-27 08:52:18 51°12.75 2°50.333 241.7 3 231 9.6
2009-03-27 08:52:23 51°12.748 2°50.328 242.1 2.8 236 9.5
2009-03-27 08:52:28 51°12.746 2°50.322 242.5 2.9 235 9.4
2009-03-27 08:52:33 51°12.744 2°50.318 242.5 2.8 235 9.2
2009-03-27 08:52:38 51°12.741 2°50.312 242.1 2.7 236 9.2
2009-03-27 08:52:43 51°12.739 2°50.307 241.6 2.7 228 9.3
2009-03-27 08:52:47 51°12.737 2°50.303 240.7 2.5 226 9.4
2009-03-27 08:52:53 51°12.734 2°50.298 239.1 2.6 228 9.4
2009-03-27 08:52:58 51°12.732 2°50.294 238 2.6 233 9.4
2009-03-27 08:53:03 51°12.729 2°50.289 237.4 2.7 229 9.5
2009-03-27 08:53:08 51°12.726 2°50.285 236.9 2.7 231 9.7
2009-03-27 08:53:13 51°12.724 2°50.28 236.8 2.8 232 9.7
2009-03-27 08:53:18 51°12.721 2°50.276 236.8 2.7 235 9.7
2009-03-27 08:53:23 51°12.719 2°50.271 236.9 2.8 225 9.8
2009-03-27 08:53:28 51°12.717 2°50.266 237.1 2.9 227 9.8
2009-03-27 08:53:33 51°12.714 2°50.261 238.7 2.8 234 9.6
2009-03-27 08:53:38 51°12.712 2°50.257 238.9 2.7 234 9.5
2009-03-27 08:53:43 51°12.709 2°50.252 239 2.8 231 9.5
2009-03-27 08:53:48 51°12.707 2°50.247 238.7 2.8 230 9.5
2009-03-27 08:53:53 51°12.704 2°50.242 238.9 2.9 232 9.7
2009-03-27 08:53:58 51°12.702 2°50.238 239.6 2.9 229 9.7
2009-03-27 08:54:03 51°12.7 2°50.233 240 2.6 229 9.8
2009-03-27 08:54:07 51°12.698 2°50.23 240.6 2.8 229 9.6
2009-03-27 08:54:13 51°12.695 2°50.224 240.3 2.7 227 9.4
2009-03-27 08:54:18 51°12.692 2°50.22 240.3 2.7 233 9.4
2009-03-27 08:54:23 51°12.69 2°50.215 240.7 2.7 231 9.4
2009-03-27 08:54:28 51°12.688 2°50.211 241 2.4 236 9.4
2009-03-27 08:54:33 51°12.685 2°50.206 240.6 2.4 225 9.5
2009-03-27 08:54:38 51°12.683 2°50.202 240.7 2.2 231 9.5
2009-03-27 08:54:43 51°12.681 2°50.199 239.9 2.4 222 9.4
2009-03-27 08:54:48 51°12.679 2°50.195 239 2.3 227 9.3
2009-03-27 08:54:53 51°12.677 2°50.191 239.3 2.3 226 9.3
2009-03-27 08:54:58 51°12.675 2°50.187 238.9 2.4 229 9.4
2009-03-27 08:55:03 51°12.672 2°50.183 238.8 2.5 231 9.4
2009-03-27 08:55:08 51°12.669 2°50.18 238.7 2.4 228 9.4
2009-03-27 08:55:13 51°12.668 2°50.175 238.3 2.5 221 9.4
2009-03-27 08:55:18 51°12.665 2°50.171 239.6 2.6 222 9.3
2009-03-27 08:55:23 51°12.663 2°50.168 240.6 2.4 228 9.4
2009-03-27 08:55:27 51°12.661 2°50.164 240.1 2.6 226 9.4
2009-03-27 08:55:33 51°12.658 2°50.159 240.2 2.6 229 9.3
2009-03-27 08:55:38 51°12.656 2°50.154 240.1 2.5 232 9.3
2009-03-27 08:55:43 51°12.654 2°50.15 240.3 2.6 230 9.4
2009-03-27 08:55:48 51°12.651 2°50.145 240 2.8 234 9.5
2009-03-27 08:55:53 51°12.649 2°50.14 241 2.8 231 9.6
2009-03-27 08:55:58 51°12.647 2°50.135 242 2.8 235 9.7
2009-03-27 08:56:03 51°12.644 2°50.13 242.4 2.8 233 9.7
2009-03-27 08:56:08 51°12.642 2°50.125 242.8 2.8 236 9.7
2009-03-27 08:56:13 51°12.64 2°50.12 243.5 2.9 231 9.7
2009-03-27 08:56:18 51°12.638 2°50.115 244 2.9 235 9.6
2009-03-27 08:56:23 51°12.635 2°50.11 244 2.7 234 9.4
2009-03-27 08:56:28 51°12.633 2°50.105 243.9 2.9 234 9.4
2009-03-27 08:56:33 51°12.631 2°50.1 244.1 2.9 234 9.4
2009-03-27 08:56:38 51°12.629 2°50.094 243.8 2.9 237 9.4
2009-03-27 08:56:43 51°12.626 2°50.09 244 2.8 233 9.5
2009-03-27 08:56:48 51°12.624 2°50.084 244.4 2.9 230 9.5
2009-03-27 08:56:53 51°12.622 2°50.079 244.3 2.8 233 9.3
2009-03-27 08:56:58 51°12.62 2°50.074 243.5 2.7 240 9.1
2009-03-27 08:57:03 51°12.618 2°50.069 242.3 2.9 234 9.1
2009-03-27 08:57:07 51°12.616 2°50.065 241.7 2.7 236 9.2
2009-03-27 08:57:13 51°12.613 2°50.059 241.8 2.8 236 9.3
2009-03-27 08:57:18 51°12.611 2°50.054 242.3 2.8 238 9.4
2009-03-27 08:57:23 51°12.609 2°50.049 242.7 2.9 236 9.6
2009-03-27 08:57:27 51°12.607 2°50.044 243.2 2.9 236 9.7
2009-03-27 08:57:33 51°12.604 2°50.038 243.5 2.8 236 9.6
2009-03-27 08:57:38 51°12.602 2°50.033 243.8 2.6 233 9.4
2009-03-27 08:57:43 51°12.6 2°50.028 243.1 2.6 231 9.2
2009-03-27 08:57:48 51°12.597 2°50.024 241.7 2.6 229 9.1
2009-03-27 08:57:53 51°12.595 2°50.019 240.8 2.6 234 9
2009-03-27 08:57:58 51°12.593 2°50.014 241 2.6 233 9.1
2009-03-27 08:58:03 51°12.59 2°50.01 241.6 2.6 231 9.2
2009-03-27 08:58:08 51°12.589 2°50.005 241.4 2.6 237 9.4
2009-03-27 08:58:13 51°12.586 2°50.001 242.1 2.6 236 9.5
2009-03-27 08:58:18 51°12.584 2°49.996 243.3 2.5 237 9.5
2009-03-27 08:58:22 51°12.582 2°49.992 243.8 2.7 233 9.5
2009-03-27 08:58:28 51°12.58 2°49.987 244.3 2.7 233 9.3
2009-03-27 08:58:33 51°12.578 2°49.982 245.7 2.8 231 9.2
2009-03-27 08:58:38 51°12.576 2°49.978 247.1 2.6 234 9.1
2009-03-27 08:58:43 51°12.574 2°49.974 247.5 2.4 237 9
2009-03-27 08:58:48 51°12.572 2°49.97 248.2 2.4 232 9.1
2009-03-27 08:58:53 51°12.57 2°49.966 247.2 2.4 233 9.3
2009-03-27 08:58:58 51°12.568 2°49.961 246.8 2.5 234 9.4
2009-03-27 08:59:03 51°12.566 2°49.957 246.2 2.5 237 9.4
2009-03-27 08:59:08 51°12.564 2°49.952 246.8 2.5 238 9.5
2009-03-27 08:59:13 51°12.563 2°49.947 247.7 2.5 242 9.5
2009-03-27 08:59:18 51°12.561 2°49.943 247.6 2.5 238 9.5
2009-03-27 08:59:22 51°12.56 2°49.939 248.2 2.6 240 9.6
2009-03-27 08:59:28 51°12.557 2°49.933 249 2.6 236 9.6
2009-03-27 08:59:33 51°12.556 2°49.929 249.6 2.6 236 9.5
2009-03-27 08:59:38 51°12.554 2°49.924 249 2.7 233 9.4
2009-03-27 08:59:43 51°12.552 2°49.92 250.2 2.5 232 9.3
2009-03-27 08:59:48 51°12.55 2°49.915 249 2.4 243 9.1
2009-03-27 08:59:53 51°12.548 2°49.91 247.9 2.5 239 9.2
2009-03-27 08:59:58 51°12.546 2°49.906 247.5 2.5 235 9.3
2009-03-27 09:00:03 51°12.544 2°49.901 246.6 2.5 234 9.5
2009-03-27 09:00:08 51°12.542 2°49.897 246.1 2.6 232 9.6
2009-03-27 09:00:13 51°12.54 2°49.892 244.9 2.7 231 9.6
2009-03-27 09:00:18 51°12.538 2°49.887 243.4 2.7 231 9.5
2009-03-27 09:00:22 51°12.536 2°49.883 242.5 2.6 234 9.4
2009-03-27 09:00:28 51°12.533 2°49.878 242.5 2.6 232 9.4
2009-03-27 09:00:33 51°12.531 2°49.873 241.8 2.8 229 9.3
2009-03-27 09:00:38 51°12.528 2°49.869 241.2 2.7 232 9.2
2009-03-27 09:00:43 51°12.526 2°49.864 239.8 2.7 229 9.2
2009-03-27 09:00:48 51°12.524 2°49.859 239.1 2.8 235 9.3
2009-03-27 09:00:53 51°12.521 2°49.854 238.9 3 232 9.4
2009-03-27 09:00:58 51°12.519 2°49.848 238.7 3 235 9.4
2009-03-27 09:01:03 51°12.516 2°49.843 238.4 3 230 9.4
2009-03-27 09:01:08 51°12.513 2°49.838 238.3 3 232 9.3
2009-03-27 09:01:13 51°12.511 2°49.833 238.3 3 235 9.3
2009-03-27 09:01:18 51°12.509 2°49.827 237.9 2.8 226 9.1
2009-03-27 09:01:23 51°12.505 2°49.823 237.6 2.9 225 9.2
2009-03-27 09:01:28 51°12.502 2°49.819 235.2 3.1 220 9.1
2009-03-27 09:01:33 51°12.499 2°49.814 234.1 3.1 224 9.1
2009-03-27 09:01:38 51°12.496 2°49.809 233.8 3.1 223 9
2009-03-27 09:01:42 51°12.494 2°49.805 233.3 3 232 8.9
2009-03-27 09:01:48 51°12.49 2°49.799 233.5 3.1 226 9.1
2009-03-27 09:01:53 51°12.488 2°49.794 233.7 3 232 9.1
2009-03-27 09:01:58 51°12.484 2°49.789 234.4 3.1 227 9.2
2009-03-27 09:02:03 51°12.482 2°49.784 233.5 3.1 226 9.3
2009-03-27 09:02:08 51°12.479 2°49.779 233.5 3.2 228 9.4
2009-03-27 09:02:13 51°12.476 2°49.773 233.4 3.2 230 9.5
2009-03-27 09:02:18 51°12.473 2°49.768 233.1 3.2 228 9.6
2009-03-27 09:02:23 51°12.47 2°49.763 233.7 3.2 228 9.6
2009-03-27 09:02:28 51°12.467 2°49.758 236.1 3.1 229 9.5
2009-03-27 09:02:33 51°12.465 2°49.753 239 3 231 9.3
2009-03-27 09:02:38 51°12.462 2°49.748 241.3 3 236 9.3
2009-03-27 09:02:42 51°12.461 2°49.743 244.3 2.8 235 9.3
2009-03-27 09:02:48 51°12.458 2°49.737 247.8 2.7 240 9.3
2009-03-27 09:02:53 51°12.457 2°49.732 250.9 2.5 244 9.1
2009-03-27 09:02:58 51°12.455 2°49.727 255 2.5 252 9
2009-03-27 09:03:03 51°12.453 2°49.721 256.6 2.7 244 8.9
2009-03-27 09:03:08 51°12.452 2°49.716 260.1 2.5 250 9
2009-03-27 09:03:13 51°12.451 2°49.711 264.4 2.4 253 9